createdAt,value
2022-12-18T00:02:58.479Z,27.48
2022-12-18T00:06:01.172Z,26.92
2022-12-18T00:09:04.556Z,25.52
2022-12-18T00:15:18.288Z,26.75
2022-12-18T00:18:20.891Z,25.67
2022-12-18T00:21:23.596Z,30.48
2022-12-18T00:24:26.154Z,23.15
2022-12-18T00:27:28.566Z,22.93
2022-12-18T00:30:31.516Z,23.52
2022-12-18T00:33:34.451Z,24.70
2022-12-18T00:36:37.243Z,26.45
2022-12-18T00:39:39.614Z,23.02
2022-12-18T00:42:57.297Z,29.67
2022-12-18T00:45:59.872Z,27.35
2022-12-18T00:49:02.581Z,28.53
2022-12-18T00:52:05.522Z,31.45
2022-12-18T00:55:08.488Z,27.13
2022-12-18T00:58:11.940Z,30.13
2022-12-18T01:01:15.016Z,30.52
2022-12-18T01:04:17.875Z,29.83
2022-12-18T01:07:21.590Z,31.73
2022-12-18T01:10:25.140Z,30.15
2022-12-18T01:13:28.256Z,29.52
2022-12-18T01:16:30.715Z,30.23
2022-12-18T01:19:33.688Z,28.40
2022-12-18T01:22:37.290Z,29.98
2022-12-18T01:25:39.864Z,30.08
2022-12-18T01:28:45.845Z,25.87
2022-12-18T01:31:48.461Z,28.98
2022-12-18T01:34:51.201Z,35.97
2022-12-18T01:37:57.028Z,33.78
2022-12-18T01:41:00.342Z,31.97
2022-12-18T01:44:42.008Z,34.55
2022-12-18T01:47:46.496Z,31.52
2022-12-18T01:50:51.157Z,29.07
2022-12-18T01:53:53.657Z,31.65
2022-12-18T01:56:56.135Z,30.10
2022-12-18T02:00:02.636Z,25.58
2022-12-18T02:03:15.606Z,29.38
2022-12-18T02:06:20.951Z,32.35
2022-12-18T02:09:33.533Z,29.73
2022-12-18T02:13:08.469Z,34.47
2022-12-18T02:16:37.414Z,30.77
2022-12-18T02:19:58.421Z,28.30
2022-12-18T02:23:22.776Z,29.87
2022-12-18T02:26:35.717Z,32.85
2022-12-18T02:29:43.442Z,36.60
2022-12-18T02:32:53.207Z,29.50
2022-12-18T02:35:58.519Z,30.95
2022-12-18T02:39:03.267Z,35.47
2022-12-18T02:42:09.028Z,28.42
2022-12-18T02:45:12.183Z,30.13
2022-12-18T02:48:15.118Z,27.27
2022-12-18T02:51:43.643Z,32.70
2022-12-18T02:55:16.994Z,30.63
2022-12-18T02:58:29.652Z,30.52
2022-12-18T03:01:49.267Z,31.55
2022-12-18T03:05:05.452Z,26.48
2022-12-18T03:08:18.394Z,30.25
2022-12-18T03:11:42.166Z,26.40
2022-12-18T03:14:48.355Z,30.45
2022-12-18T03:18:16.514Z,29.50
2022-12-18T03:21:24.042Z,29.98
2022-12-18T03:24:30.840Z,31.08
2022-12-18T03:27:36.998Z,29.53
2022-12-18T03:30:46.745Z,30.02
2022-12-18T03:33:56.628Z,30.58
2022-12-18T03:37:07.358Z,31.95
2022-12-18T03:40:10.527Z,32.92
2022-12-18T03:43:33.789Z,30.55
2022-12-18T03:46:53.359Z,30.98
2022-12-18T03:50:44.017Z,28.70
2022-12-18T03:53:59.161Z,32.00
2022-12-18T03:57:12.771Z,27.95
2022-12-18T04:00:18.614Z,30.77
2022-12-18T04:03:43.934Z,31.25
2022-12-18T04:06:49.510Z,31.05
2022-12-18T04:09:57.578Z,34.60
2022-12-18T04:13:00.582Z,32.63
2022-12-18T04:16:04.249Z,34.15
2022-12-18T04:19:06.907Z,34.25
2022-12-18T04:22:15.097Z,36.30
2022-12-18T04:25:21.788Z,31.70
2022-12-18T04:28:39.936Z,34.65
2022-12-18T04:31:42.969Z,33.50
2022-12-18T04:34:45.794Z,31.05
2022-12-18T04:37:48.319Z,34.70
2022-12-18T04:40:51.695Z,33.97
2022-12-18T04:44:00.859Z,34.22
2022-12-18T04:47:03.997Z,36.88
2022-12-18T04:50:07.131Z,39.55
2022-12-18T04:53:09.595Z,38.57
2022-12-18T04:56:15.171Z,34.72
2022-12-18T04:59:18.066Z,36.88
2022-12-18T05:02:20.608Z,35.53
2022-12-18T05:05:23.135Z,40.03
2022-12-18T05:08:25.798Z,36.75
2022-12-18T05:11:28.300Z,35.67
2022-12-18T05:14:30.685Z,38.42
2022-12-18T05:17:33.113Z,40.17
2022-12-18T05:20:35.638Z,33.92
2022-12-18T05:23:38.855Z,32.20
2022-12-18T05:26:41.810Z,38.90
2022-12-18T05:29:44.237Z,36.67
2022-12-18T05:32:46.920Z,32.57
2022-12-18T05:35:57.104Z,38.17
2022-12-18T05:39:01.405Z,37.85
2022-12-18T05:42:03.997Z,40.75
2022-12-18T05:45:07.287Z,44.85
2022-12-18T05:48:14.726Z,41.47
2022-12-18T05:51:19.776Z,38.20
2022-12-18T05:54:22.864Z,42.63
2022-12-18T05:57:25.260Z,37.20
2022-12-18T06:00:27.929Z,37.95
2022-12-18T06:03:33.894Z,41.33
2022-12-18T06:06:36.665Z,36.63
2022-12-18T06:09:39.795Z,41.80
2022-12-18T06:12:42.296Z,36.13
2022-12-18T06:15:44.719Z,37.22
2022-12-18T06:18:47.312Z,42.83
2022-12-18T06:21:51.775Z,43.15
2022-12-18T06:24:54.241Z,39.77
2022-12-18T06:27:56.909Z,37.35
2022-12-18T06:30:59.368Z,34.95
2022-12-18T06:34:05.780Z,40.03
2022-12-18T06:37:08.190Z,37.00
2022-12-18T06:40:11.200Z,43.33
2022-12-18T06:43:13.654Z,39.88
2022-12-18T06:46:16.341Z,38.15
2022-12-18T06:49:18.994Z,36.08
2022-12-18T06:52:21.627Z,37.35
2022-12-18T06:55:24.220Z,40.03
2022-12-18T06:58:26.696Z,42.35
2022-12-18T07:01:29.409Z,38.72
2022-12-18T07:04:32.849Z,39.93
2022-12-18T07:07:36.095Z,39.95
2022-12-18T07:10:47.451Z,40.95
2022-12-18T07:13:51.409Z,41.20
2022-12-18T07:16:53.886Z,45.85
2022-12-18T07:19:56.542Z,44.95
2022-12-18T07:22:58.948Z,48.00
2022-12-18T07:26:12.672Z,49.33
2022-12-18T07:29:15.192Z,52.47
2022-12-18T07:32:17.908Z,43.75
2022-12-18T07:35:25.142Z,43.97
2022-12-18T07:38:28.075Z,45.20
2022-12-18T07:41:31.122Z,41.15
2022-12-18T07:44:40.694Z,41.70
2022-12-18T07:47:43.242Z,38.60
2022-12-18T07:50:45.809Z,35.45
2022-12-18T07:53:51.799Z,43.28
2022-12-18T07:56:55.621Z,42.20
2022-12-18T07:59:58.199Z,37.53
2022-12-18T08:03:01.176Z,42.55
2022-12-18T08:06:06.312Z,40.60
2022-12-18T08:09:11.227Z,37.25
2022-12-18T08:12:13.730Z,39.22
2022-12-18T08:15:16.206Z,34.70
2022-12-18T08:18:18.639Z,42.80
2022-12-18T08:21:31.916Z,42.22
2022-12-18T08:24:34.354Z,45.72
2022-12-18T08:27:37.376Z,39.77
2022-12-18T08:30:39.789Z,43.53
2022-12-18T08:33:43.677Z,43.80
2022-12-18T08:36:46.479Z,46.27
2022-12-18T08:39:48.950Z,37.75
2022-12-18T08:43:09.887Z,33.92
2022-12-18T08:46:13.265Z,40.47
2022-12-18T08:49:16.452Z,42.17
2022-12-18T08:52:18.979Z,44.22
2022-12-18T08:55:21.758Z,39.50
2022-12-18T08:58:25.362Z,38.17
2022-12-18T09:01:28.009Z,38.15
2022-12-18T09:04:30.565Z,31.45
2022-12-18T09:07:32.916Z,38.67
2022-12-18T09:10:43.529Z,36.15
2022-12-18T09:13:46.147Z,42.30
2022-12-18T09:16:48.597Z,37.80
2022-12-18T09:19:51.149Z,34.90
2022-12-18T09:22:53.892Z,34.10
2022-12-18T09:26:00.717Z,37.35
2022-12-18T09:29:04.159Z,37.53
2022-12-18T09:32:06.626Z,35.97
2022-12-18T09:35:09.178Z,34.28
2022-12-18T09:38:16.875Z,39.63
2022-12-18T09:41:42.559Z,38.10
2022-12-18T09:44:50.356Z,39.75
2022-12-18T09:47:56.488Z,39.95
2022-12-18T09:51:05.269Z,35.63
2022-12-18T09:54:30.896Z,34.13
2022-12-18T09:57:38.504Z,32.28
2022-12-18T10:00:42.434Z,31.52
2022-12-18T10:03:45.084Z,31.50
2022-12-18T10:07:10.525Z,34.77
2022-12-18T10:10:41.225Z,32.83
2022-12-18T10:13:55.507Z,36.35
2022-12-18T10:17:34.311Z,31.02
2022-12-18T10:20:46.067Z,28.85
2022-12-18T10:24:00.743Z,31.53
2022-12-18T10:27:27.367Z,29.52
2022-12-18T10:30:30.743Z,29.95
2022-12-18T10:33:34.507Z,28.52
2022-12-18T10:36:36.978Z,29.15
2022-12-18T10:39:40.632Z,30.10
2022-12-18T10:42:45.020Z,28.85
2022-12-18T10:46:12.953Z,28.42
2022-12-18T10:49:26.502Z,25.48
2022-12-18T10:52:29.249Z,29.35
2022-12-18T10:55:40.812Z,28.83
2022-12-18T10:58:43.672Z,29.17
2022-12-18T11:01:50.843Z,32.83
2022-12-18T11:04:54.155Z,30.52
2022-12-18T11:07:57.882Z,29.65
2022-12-18T11:11:00.546Z,27.13
2022-12-18T11:14:13.846Z,30.50
2022-12-18T11:17:36.860Z,32.08
2022-12-18T11:20:40.121Z,33.42
2022-12-18T11:23:54.165Z,33.20
2022-12-18T11:27:01.390Z,24.70
2022-12-18T11:30:26.145Z,30.25
2022-12-18T11:33:28.800Z,26.98
2022-12-18T11:36:37.551Z,25.48
2022-12-18T11:39:54.419Z,25.70
2022-12-18T11:43:10.760Z,26.50
2022-12-18T11:46:20.306Z,24.95
2022-12-18T11:49:31.057Z,26.83
2022-12-18T11:52:41.518Z,27.05
2022-12-18T11:56:22.708Z,24.42
2022-12-18T11:59:47.519Z,25.37
2022-12-18T12:03:16.059Z,25.73
2022-12-18T12:06:27.435Z,28.80
2022-12-18T12:09:41.506Z,26.40
2022-12-18T12:13:02.248Z,26.33
2022-12-18T12:16:18.195Z,28.03
2022-12-18T12:19:48.962Z,26.40
2022-12-18T12:23:26.146Z,25.63
2022-12-18T12:26:40.052Z,22.27
2022-12-18T12:30:06.719Z,23.88
2022-12-18T12:33:13.959Z,24.27
2022-12-18T12:36:19.866Z,25.00
2022-12-18T12:39:29.321Z,24.92
2022-12-18T12:43:01.001Z,26.67
2022-12-18T12:46:07.547Z,23.65
2022-12-18T12:49:18.646Z,24.77
2022-12-18T12:52:42.135Z,26.33
2022-12-18T12:55:44.857Z,24.77
2022-12-18T12:59:02.835Z,25.60
2022-12-18T13:02:12.058Z,24.10
2022-12-18T13:05:26.855Z,25.33
2022-12-18T13:08:33.285Z,25.95
2022-12-18T13:12:04.788Z,24.67
2022-12-18T13:15:26.180Z,23.60
2022-12-18T13:18:30.128Z,25.05
2022-12-18T13:21:34.811Z,26.70
2022-12-18T13:24:37.345Z,24.85
2022-12-18T13:27:46.741Z,28.35
2022-12-18T13:30:57.392Z,27.25
2022-12-18T13:34:26.991Z,26.60
2022-12-18T13:37:34.491Z,28.77
2022-12-18T13:40:39.689Z,29.92
2022-12-18T13:43:48.343Z,29.77
2022-12-18T13:46:53.467Z,33.13
2022-12-18T13:49:57.391Z,32.80
2022-12-18T13:53:00.233Z,31.33
2022-12-18T13:56:04.708Z,31.58
2022-12-18T13:59:18.574Z,33.58
2022-12-18T14:02:25.628Z,33.28
2022-12-18T14:05:31.252Z,31.52
2022-12-18T14:08:40.315Z,28.60
2022-12-18T14:11:48.716Z,33.05
2022-12-18T14:14:54.965Z,33.03
2022-12-18T14:18:23.093Z,31.83
2022-12-18T14:21:35.056Z,34.58
2022-12-18T14:24:37.529Z,31.50
2022-12-18T14:27:49.537Z,31.30
2022-12-18T14:30:52.059Z,30.45
2022-12-18T14:33:54.828Z,33.45
2022-12-18T14:36:57.469Z,34.45
2022-12-18T14:40:10.456Z,36.97
2022-12-18T14:43:14.364Z,35.83
2022-12-18T14:46:30.967Z,35.65
2022-12-18T14:49:35.292Z,37.65
2022-12-18T14:52:38.675Z,39.78
2022-12-18T14:55:48.502Z,39.80
2022-12-18T14:59:02.478Z,38.45
2022-12-18T15:02:11.958Z,34.47
2022-12-18T15:05:14.462Z,37.17
2022-12-18T15:08:50.741Z,37.57
2022-12-18T15:11:59.894Z,41.20
2022-12-18T15:15:04.049Z,38.65
2022-12-18T15:18:12.979Z,39.55
2022-12-18T15:21:20.257Z,40.90
2022-12-18T15:24:28.251Z,41.57
2022-12-18T15:27:38.812Z,41.88
2022-12-18T15:31:03.416Z,39.88
2022-12-18T15:34:09.293Z,44.13
2022-12-18T15:37:12.192Z,38.63
2022-12-18T15:40:23.388Z,37.88
2022-12-18T15:43:36.440Z,43.38
2022-12-18T15:46:39.117Z,41.10
2022-12-18T15:49:42.750Z,43.53
2022-12-18T15:52:48.789Z,43.38
2022-12-18T15:56:10.169Z,40.40
2022-12-18T15:59:18.687Z,41.13
2022-12-18T16:02:23.922Z,41.05
2022-12-18T16:05:28.905Z,43.40
2022-12-18T16:08:32.387Z,42.13
2022-12-18T16:11:44.130Z,44.83
2022-12-18T16:14:46.850Z,52.78
2022-12-18T16:17:49.749Z,56.30
2022-12-18T16:20:52.712Z,69.47
2022-12-18T16:23:55.611Z,61.00
2022-12-18T16:27:00.345Z,66.18
2022-12-18T16:30:03.696Z,71.82
2022-12-18T16:33:07.702Z,66.32
2022-12-18T16:36:10.667Z,61.63
2022-12-18T16:39:13.696Z,65.45
2022-12-18T16:42:20.101Z,69.82
2022-12-18T16:45:23.332Z,68.40
2022-12-18T16:48:26.106Z,60.13
2022-12-18T16:51:28.917Z,61.78
2022-12-18T16:54:31.724Z,59.47
2022-12-18T16:57:34.434Z,59.77
2022-12-18T17:00:38.961Z,59.40
2022-12-18T17:03:42.031Z,61.35
2022-12-18T17:06:52.058Z,55.97
2022-12-18T17:09:55.172Z,58.67
2022-12-18T17:12:58.031Z,58.90
2022-12-18T17:16:08.665Z,57.17
2022-12-18T17:19:16.815Z,53.10
2022-12-18T17:22:21.885Z,52.67
2022-12-18T17:25:24.463Z,57.50
2022-12-18T17:28:28.943Z,51.67
2022-12-18T17:31:32.580Z,52.90
2022-12-18T17:34:36.650Z,54.08
2022-12-18T17:37:39.578Z,58.78
2022-12-18T17:40:46.243Z,54.88
2022-12-18T17:43:56.855Z,65.38
2022-12-18T17:47:00.020Z,55.83
2022-12-18T17:50:03.686Z,56.93
2022-12-18T17:53:06.519Z,60.03
2022-12-18T17:56:13.162Z,56.10
2022-12-18T17:59:16.080Z,64.00
2022-12-18T18:02:19.217Z,55.30
2022-12-18T18:05:21.980Z,57.42
2022-12-18T18:08:25.856Z,58.30
2022-12-18T18:11:46.796Z,58.83
2022-12-18T18:14:49.804Z,52.20
2022-12-18T18:17:52.905Z,48.08
2022-12-18T18:20:55.755Z,49.87
2022-12-18T18:24:01.146Z,61.33
2022-12-18T18:27:04.292Z,61.00
2022-12-18T18:30:08.003Z,60.47
2022-12-18T18:33:12.177Z,61.83
2022-12-18T18:36:14.745Z,65.60
2022-12-18T18:39:17.680Z,66.43
2022-12-18T18:42:20.361Z,56.50
2022-12-18T18:45:23.404Z,65.80
2022-12-18T18:48:27.364Z,68.40
2022-12-18T18:51:35.124Z,70.93
2022-12-18T18:54:44.305Z,73.97
2022-12-18T18:57:54.916Z,69.88
2022-12-18T19:01:07.995Z,70.65
2022-12-18T19:04:10.936Z,99.72
2022-12-18T19:07:22.299Z,100.50
2022-12-18T19:10:33.566Z,99.03
2022-12-18T19:13:36.653Z,74.20
2022-12-18T19:16:40.882Z,77.03
2022-12-18T19:19:43.842Z,82.90
2022-12-18T19:22:55.090Z,80.70
2022-12-18T19:26:26.880Z,88.95
2022-12-18T19:29:25.707Z,78.05
2022-12-18T19:32:31.495Z,88.03
2022-12-18T19:35:34.283Z,88.88
2022-12-18T19:38:37.045Z,83.65
2022-12-18T19:41:40.943Z,84.25
2022-12-18T19:44:45.156Z,75.57
2022-12-18T19:47:47.858Z,80.47
2022-12-18T19:50:50.624Z,81.03
2022-12-18T19:53:58.442Z,72.83
2022-12-18T19:57:01.641Z,71.53
2022-12-18T20:00:05.934Z,73.25
2022-12-18T20:03:23.482Z,76.70
2022-12-18T20:06:36.053Z,83.95
2022-12-18T20:09:38.744Z,77.43
2022-12-18T20:12:42.816Z,89.18
2022-12-18T20:15:45.722Z,77.30
2022-12-18T20:18:49.277Z,80.63
2022-12-18T20:21:52.790Z,77.20
2022-12-18T20:24:55.419Z,76.63
2022-12-18T20:27:58.091Z,72.57
2022-12-18T20:31:03.159Z,71.68
2022-12-18T20:34:07.279Z,90.32
2022-12-18T20:37:19.491Z,84.47
2022-12-18T20:40:23.701Z,84.60
2022-12-18T20:43:26.238Z,102.30
2022-12-18T20:46:28.782Z,99.17
2022-12-18T20:49:31.252Z,86.85
2022-12-18T20:52:34.338Z,93.35
2022-12-18T20:55:41.826Z,99.00
2022-12-18T20:58:45.186Z,92.50
2022-12-18T21:01:48.820Z,83.18
2022-12-18T21:04:51.997Z,85.72
2022-12-18T21:07:54.420Z,84.18
2022-12-18T21:11:32.339Z,79.57
2022-12-18T21:14:35.528Z,81.55
2022-12-18T21:17:42.941Z,70.17
2022-12-18T21:20:47.728Z,74.60
2022-12-18T21:23:50.924Z,73.80
2022-12-18T21:26:53.991Z,72.87
2022-12-18T21:29:56.599Z,74.50
2022-12-18T21:32:59.252Z,67.60
2022-12-18T21:36:06.412Z,73.80
2022-12-18T21:39:09.055Z,72.05
2022-12-18T21:42:31.245Z,70.28
2022-12-18T21:45:34.028Z,63.78
2022-12-18T21:48:39.104Z,57.47
2022-12-18T21:51:41.507Z,54.63
2022-12-18T21:54:43.972Z,56.50
2022-12-18T21:57:46.646Z,61.67
2022-12-18T22:00:50.173Z,56.38
2022-12-18T22:03:53.483Z,55.08
2022-12-18T22:06:56.188Z,64.22
2022-12-18T22:09:59.075Z,63.65
2022-12-18T22:13:02.744Z,64.30
2022-12-18T22:16:05.387Z,72.43
2022-12-18T22:19:08.960Z,81.83
2022-12-18T22:22:11.449Z,71.95
2022-12-18T22:25:14.111Z,67.80
2022-12-18T22:28:35.044Z,57.87
2022-12-18T22:31:38.588Z,61.03
2022-12-18T22:34:41.116Z,68.35
2022-12-18T22:37:43.562Z,64.72
2022-12-18T22:40:46.039Z,67.07
2022-12-18T22:43:48.713Z,67.85
2022-12-18T22:46:56.211Z,63.45
2022-12-18T22:50:12.658Z,67.90
2022-12-18T22:53:15.088Z,58.78
2022-12-18T22:56:21.148Z,63.97
2022-12-18T22:59:25.067Z,59.23
2022-12-18T23:02:27.655Z,62.67
2022-12-18T23:05:31.388Z,63.50
2022-12-18T23:08:34.584Z,67.63
2022-12-18T23:11:37.033Z,64.20
2022-12-18T23:14:39.481Z,65.55
2022-12-18T23:17:42.004Z,67.00
2022-12-18T23:20:44.624Z,64.63
2022-12-18T23:23:48.531Z,72.18
2022-12-18T23:26:50.991Z,69.15
2022-12-18T23:29:53.397Z,66.27
2022-12-18T23:32:57.702Z,72.35
2022-12-18T23:36:01.448Z,74.07
2022-12-18T23:39:04.335Z,70.25
2022-12-18T23:42:06.708Z,67.38
2022-12-18T23:45:16.604Z,75.70
2022-12-18T23:48:21.055Z,76.07
2022-12-18T23:51:25.609Z,70.00
2022-12-18T23:54:33.161Z,75.25
2022-12-18T23:57:36.315Z,65.30
